Time;durP1;ratioP1;P1;durP2;ratioP2;P2;SDS_P1;SDS_P2;PMS_P1;PMS_P2;Temp;Humidity;BMP_temperature;BMP_pressure;BME280_temperature;BME280_humidity;BME280_pressure;Samples;Min_cycle;Max_cycle;Signal;HPM_P1;HPM_P2
2021/12/10 00:00:33;;;;;;;119.88;50.67;;;;;;;-2.00;100.00;97749.25;2063101;28;20232;-78
2021/12/10 00:01:40;;;;;;;114.90;49.60;;;;;;;-1.97;100.00;97753.19;2070361;28;20240;-78
2021/12/10 00:02:46;;;;;;;124.97;51.95;;;;;;;-1.89;100.00;97742.28;2068703;28;20639;-78
2021/12/10 00:03:58;;;;;;;115.25;51.13;;;;;;;-1.86;100.00;97741.00;2062876;28;20670;-78
2021/12/10 00:05:05;;;;;;;118.32;50.53;;;;;;;-1.96;100.00;97731.25;2070244;28;20622;-78
2021/12/10 00:06:14;;;;;;;125.82;51.00;;;;;;;-1.98;100.00;97741.16;2070901;28;20228;-77
2021/12/10 00:07:24;;;;;;;124.97;51.83;;;;;;;-2.03;100.00;97733.28;2070264;28;20227;-80
2021/12/10 00:08:32;;;;;;;133.77;51.33;;;;;;;-2.04;100.00;97747.38;2070104;28;20714;-78
2021/12/10 00:09:38;;;;;;;128.05;51.15;;;;;;;-1.98;100.00;97741.16;2070822;28;20648;-78
2021/12/10 00:10:48;;;;;;;126.25;50.67;;;;;;;-1.96;100.00;97743.53;2062336;28;20237;-78
2021/12/10 00:11:58;;;;;;;114.72;51.22;;;;;;;-1.88;100.00;97743.09;2070284;28;20228;-78
2021/12/10 00:13:02;;;;;;;122.15;51.42;;;;;;;-1.90;100.00;97735.50;2063035;28;20267;-78
2021/12/10 00:14:11;;;;;;;118.90;50.58;;;;;;;-1.89;100.00;97731.84;2068264;28;20255;-76
2021/12/10 00:15:18;;;;;;;126.10;54.72;;;;;;;-1.95;100.00;97739.88;2062991;28;20228;-78
2021/12/10 00:16:22;;;;;;;130.80;53.05;;;;;;;-1.91;100.00;97731.31;2070726;28;20220;-78
2021/12/10 00:17:24;;;;;;;125.05;50.80;;;;;;;-1.92;100.00;97732.31;2070755;28;20224;-78
2021/12/10 00:18:36;;;;;;;119.75;51.10;;;;;;;-1.91;100.00;97738.34;2070285;28;20316;-78
2021/12/10 00:19:45;;;;;;;123.40;52.40;;;;;;;-2.00;100.00;97735.38;2063805;28;20281;-76
2021/12/10 00:20:57;;;;;;;120.63;50.53;;;;;;;-1.98;100.00;97741.16;2063130;28;20680;-78
2021/12/10 00:22:08;;;;;;;120.13;51.45;;;;;;;-1.95;100.00;97738.06;2064960;28;20249;-78
2021/12/10 00:23:15;;;;;;;118.70;51.03;;;;;;;-1.89;100.00;97734.47;2070196;28;20234;-78
2021/12/10 00:24:25;;;;;;;118.78;51.40;;;;;;;-1.91;100.00;97733.91;2071486;28;20246;-78
2021/12/10 00:25:35;;;;;;;130.27;52.65;;;;;;;-1.95;100.00;97727.59;2069923;28;20641;-78
2021/12/10 00:26:44;;;;;;;128.20;53.08;;;;;;;-2.02;100.00;97732.22;2069647;28;20714;-78
2021/12/10 00:27:52;;;;;;;128.27;51.80;;;;;;;-2.05;100.00;97730.13;2071186;28;20220;-78
2021/12/10 00:29:04;;;;;;;131.85;52.75;;;;;;;-2.05;100.00;97735.34;2070589;28;20227;-78
2021/12/10 00:30:17;;;;;;;131.50;51.35;;;;;;;-1.94;100.00;97737.00;2070651;28;20311;-78
2021/12/10 00:31:31;;;;;;;116.00;51.33;;;;;;;-1.98;100.00;97733.31;2071003;28;20223;-79
2021/12/10 00:32:39;;;;;;;120.13;51.20;;;;;;;-1.83;100.00;97725.59;2070329;28;20224;-78
2021/12/10 00:33:47;;;;;;;122.70;50.90;;;;;;;-1.84;100.00;97724.03;2069685;28;20722;-78
2021/12/10 00:34:56;;;;;;;122.07;52.38;;;;;;;-1.91;100.00;97726.09;2070515;28;20246;-79
2021/12/10 00:36:02;;;;;;;123.43;52.33;;;;;;;-1.96;100.00;97731.25;2070106;28;20660;-78
2021/12/10 00:37:11;;;;;;;123.32;53.38;;;;;;;-2.04;100.00;97724.66;2070983;28;20223;-79
2021/12/10 00:38:15;;;;;;;124.65;53.05;;;;;;;-2.03;100.00;97722.81;2070314;28;20323;-79
2021/12/10 00:39:20;;;;;;;125.88;51.20;;;;;;;-2.02;100.00;97727.00;2070236;28;20303;-79
2021/12/10 00:40:28;;;;;;;124.88;52.72;;;;;;;-2.06;100.00;97720.72;2071188;28;20227;-79
2021/12/10 00:41:37;;;;;;;124.80;53.30;;;;;;;-2.06;100.00;97723.31;2070531;28;20216;-79
2021/12/10 00:42:49;;;;;;;121.68;51.60;;;;;;;-2.11;100.00;97715.41;2068780;28;20242;-78
2021/12/10 00:43:55;;;;;;;112.85;52.28;;;;;;;-2.04;100.00;97723.84;2063696;28;20217;-78
2021/12/10 00:45:01;;;;;;;128.70;53.47;;;;;;;-2.08;100.00;97714.94;2063117;28;20248;-78
2021/12/10 00:46:06;;;;;;;131.82;53.85;;;;;;;-2.05;100.00;97723.06;2071545;28;20230;-78
2021/12/10 00:47:07;;;;;;;123.03;52.92;;;;;;;-2.04;100.00;97714.19;2078044;28;20277;-78
2021/12/10 00:48:14;;;;;;;124.70;52.13;;;;;;;-2.06;100.00;97708.44;2078536;28;20278;-78
2021/12/10 00:49:23;;;;;;;134.77;53.30;;;;;;;-2.04;100.00;97726.47;2078430;28;20269;-78
2021/12/10 00:50:38;;;;;;;127.30;52.75;;;;;;;-2.05;100.00;97727.50;2070994;28;20306;-80
2021/12/10 00:51:46;;;;;;;128.25;52.90;;;;;;;-2.06;100.00;97713.66;2071548;28;20224;-78
2021/12/10 00:52:50;;;;;;;125.15;52.60;;;;;;;-2.06;100.00;97702.41;2070524;28;20220;-78
2021/12/10 00:53:57;;;;;;;121.63;52.22;;;;;;;-2.06;100.00;97697.19;2070182;28;20310;-77
2021/12/10 00:54:59;;;;;;;128.02;53.72;;;;;;;-2.00;100.00;97683.13;2078442;28;20258;-78
2021/12/10 00:56:03;;;;;;;123.20;53.35;;;;;;;-1.99;100.00;97679.50;2078492;28;20223;-79
2021/12/10 00:57:11;;;;;;;126.15;53.42;;;;;;;-2.01;100.00;97674.50;2078563;28;20732;-78
2021/12/10 00:58:28;;;;;;;124.20;52.15;;;;;;;-2.03;100.00;97675.78;2078028;28;20314;-78
2021/12/10 00:59:36;;;;;;;128.32;51.63;;;;;;;-2.05;100.00;97683.88;2078225;28;20314;-78
2021/12/10 01:00:48;;;;;;;131.63;53.33;;;;;;;-2.06;100.00;97691.97;2078417;28;20235;-78
2021/12/10 01:02:00;;;;;;;137.43;53.03;;;;;;;-2.09;100.00;97682.00;2071257;28;20320;-78
2021/12/10 01:03:07;;;;;;;122.25;52.80;;;;;;;-2.05;100.00;97683.09;2070043;28;20702;-78
2021/12/10 01:04:16;;;;;;;122.35;53.95;;;;;;;-2.06;100.00;97681.50;2076738;28;20301;-78
2021/12/10 01:05:19;;;;;;;123.97;51.25;;;;;;;-2.07;100.00;97679.94;2079154;28;20219;-78
2021/12/10 01:06:25;;;;;;;116.00;50.95;;;;;;;-2.09;100.00;97682.00;2078380;28;20223;-79
2021/12/10 01:07:33;;;;;;;124.18;52.33;;;;;;;-2.01;100.00;97697.22;2070160;28;20686;-78
2021/12/10 01:08:46;;;;;;;144.35;54.05;;;;;;;-1.98;100.00;97693.34;2078383;28;20235;-78
2021/12/10 01:09:52;;;;;;;124.50;52.20;;;;;;;-2.00;100.00;97698.78;2078016;28;20283;-78
2021/12/10 01:11:08;;;;;;;132.02;50.92;;;;;;;-1.97;100.00;97695.69;2078017;28;20318;-78
2021/12/10 01:12:17;;;;;;;125.95;52.10;;;;;;;-1.98;100.00;97704.59;2078079;28;20231;-78
2021/12/10 01:13:29;;;;;;;132.20;53.55;;;;;;;-2.01;100.00;97703.22;2078343;28;20224;-78
2021/12/10 01:14:41;;;;;;;127.35;50.88;;;;;;;-1.91;100.00;97710.41;2078613;28;20226;-79
2021/12/10 01:16:08;;;;;;;131.95;51.17;;;;;;;-1.97;100.00;97711.38;2077753;28;20689;-78
2021/12/10 01:24:17;;;;;;;125.60;51.92;;;;;;;-2.09;100.00;97708.13;2072215;28;20228;-78
2021/12/10 01:25:34;;;;;;;121.70;51.05;;;;;;;-2.12;100.00;97706.00;2078134;28;20222;-78
2021/12/10 01:26:57;;;;;;;128.45;53.05;;;;;;;-2.11;100.00;97704.97;2078413;28;20273;-78
2021/12/10 01:27:59;;;;;;;126.97;51.67;;;;;;;-2.11;100.00;97705.75;2077492;28;20627;-78
2021/12/10 01:29:03;;;;;;;131.10;55.03;;;;;;;-2.11;100.00;97710.97;2069799;28;20220;-78
2021/12/10 01:30:12;;;;;;;135.20;55.03;;;;;;;-2.09;100.00;97708.13;2077966;28;20227;-79
2021/12/10 01:31:15;;;;;;;134.60;54.13;;;;;;;-2.08;100.00;97712.34;2070643;28;20228;-78
2021/12/10 01:32:20;;;;;;;128.30;52.15;;;;;;;-2.10;100.00;97714.38;2070563;28;20614;-79
2021/12/10 01:33:26;;;;;;;133.88;52.50;;;;;;;-2.07;100.00;97730.38;2070060;28;20290;-77
2021/12/10 01:34:30;;;;;;;129.73;52.47;;;;;;;-2.04;100.00;97716.00;2078024;28;20235;-78
2021/12/10 01:35:37;;;;;;;124.30;51.30;;;;;;;-2.04;100.00;97714.19;2078036;28;20270;-79
2021/12/10 01:36:41;;;;;;;137.05;53.60;;;;;;;-2.07;100.00;97712.09;2077821;28;20578;-78
2021/12/10 01:37:53;;;;;;;134.52;53.30;;;;;;;-1.98;100.00;97719.47;2077829;28;20227;-79
2021/12/10 01:39:04;;;;;;;135.45;53.97;;;;;;;-2.04;100.00;97716.81;2077627;28;20763;-78
2021/12/10 01:40:18;;;;;;;123.82;52.53;;;;;;;-2.00;100.00;97717.09;2078402;28;20239;-77
2021/12/10 01:41:34;;;;;;;129.57;51.80;;;;;;;-2.03;100.00;97705.31;2078303;28;20573;-79
2021/12/10 01:42:44;;;;;;;138.90;52.38;;;;;;;-1.99;100.00;97716.06;2078186;28;20222;-78
2021/12/10 01:43:51;;;;;;;119.68;51.65;;;;;;;-2.00;100.00;97712.69;2078022;28;20269;-79
2021/12/10 01:45:10;;;;;;;128.85;51.25;;;;;;;-2.03;100.00;97713.16;2069665;28;20608;-78
2021/12/10 01:46:18;;;;;;;130.38;51.47;;;;;;;-2.01;100.00;97723.34;2065017;28;20700;-78
2021/12/10 01:47:32;;;;;;;119.35;51.90;;;;;;;-2.04;100.00;97716.00;2069847;28;20228;-78
2021/12/10 01:48:40;;;;;;;132.68;53.00;;;;;;;-2.03;100.00;97713.16;2078078;28;20605;-79
2021/12/10 01:49:46;;;;;;;120.68;53.80;;;;;;;-2.01;100.00;97720.75;2078326;28;20259;-78
2021/12/10 01:50:48;;;;;;;134.25;54.25;;;;;;;-2.01;100.00;97715.50;2077784;28;20318;-79
2021/12/10 01:51:56;;;;;;;140.05;53.65;;;;;;;-2.00;100.00;97711.84;2069981;28;20241;-78
2021/12/10 01:53:05;;;;;;;123.00;52.92;;;;;;;-1.98;100.00;97714.25;2070398;28;20251;-78
2021/12/10 01:54:18;;;;;;;134.80;53.65;;;;;;;-1.96;100.00;97714.78;2071023;28;20283;-78
2021/12/10 01:55:23;;;;;;;126.82;51.97;;;;;;;-1.99;100.00;97716.06;2077661;28;20274;-78
2021/12/10 01:56:37;;;;;;;135.48;54.47;;;;;;;-1.97;100.00;97713.22;2078102;28;20230;-78
2021/12/10 01:57:41;;;;;;;147.70;54.25;;;;;;;-1.99;100.00;97716.06;2078521;28;20218;-78
2021/12/10 01:58:50;;;;;;;132.10;54.17;;;;;;;-2.01;100.00;97711.06;2079454;28;20223;-78
2021/12/10 02:00:04;;;;;;;142.57;54.65;;;;;;;-1.97;100.00;97719.22;2078735;28;20222;-78
2021/12/10 02:01:15;;;;;;;141.20;54.42;;;;;;;-1.97;100.00;97724.44;2071986;28;20240;-78
2021/12/10 02:02:23;;;;;;;142.68;53.95;;;;;;;-1.97;100.00;97728.88;2071279;28;20228;-78
2021/12/10 02:03:28;;;;;;;134.43;55.72;;;;;;;-1.98;100.00;97722.88;2077915;28;20283;-78
2021/12/10 02:04:34;;;;;;;142.27;55.40;;;;;;;-1.98;100.00;97722.88;2080535;28;20223;-78
2021/12/10 02:05:36;;;;;;;143.18;53.90;;;;;;;-1.95;100.00;97730.22;2081071;28;20689;-78
2021/12/10 02:06:46;;;;;;;137.70;54.03;;;;;;;-1.97;100.00;97721.84;2080431;28;20231;-77
2021/12/10 02:07:53;;;;;;;135.43;52.85;;;;;;;-1.95;100.00;97724.97;2079946;28;20302;-78
2021/12/10 02:08:59;;;;;;;130.55;53.40;;;;;;;-1.95;100.00;97724.97;2079582;28;20302;-78
2021/12/10 02:10:03;;;;;;;144.90;55.03;;;;;;;-1.97;100.00;97716.59;2080331;28;20220;-78
2021/12/10 02:11:07;;;;;;;130.05;52.42;;;;;;;-2.00;100.00;97717.91;2079997;28;20223;-78
2021/12/10 02:12:11;;;;;;;143.13;54.22;;;;;;;-1.93;100.00;97722.13;2079821;28;20273;-78
2021/12/10 02:13:12;;;;;;;129.70;53.80;;;;;;;-1.93;100.00;97720.28;2080013;28;20265;-77
2021/12/10 02:14:17;;;;;;;146.15;56.50;;;;;;;-1.95;100.00;97719.75;2071854;28;20322;-78
2021/12/10 02:15:26;;;;;;;143.15;57.13;;;;;;;-1.95;100.00;97718.97;2072214;28;20261;-78
2021/12/10 02:16:30;;;;;;;155.55;59.72;;;;;;;-1.94;100.00;97721.31;2072793;28;20267;-78
2021/12/10 02:17:35;;;;;;;148.02;58.05;;;;;;;-1.94;100.00;97710.88;2071989;28;20682;-79
2021/12/10 02:18:38;;;;;;;151.05;57.40;;;;;;;-1.94;100.00;97713.50;2071752;28;20663;-78
2021/12/10 02:19:39;;;;;;;152.48;57.92;;;;;;;-1.93;100.00;97707.22;2079665;28;20307;-78
2021/12/10 02:21:15;;;;;;;155.82;59.10;;;;;;;-1.94;100.00;97705.66;2080044;28;20243;-78
2021/12/10 02:22:18;;;;;;;142.07;57.30;;;;;;;-1.86;100.00;97697.34;2080024;28;20662;-78
2021/12/10 02:23:24;;;;;;;138.52;53.53;;;;;;;-1.91;100.00;97696.50;2080398;28;20704;-78
2021/12/10 02:24:28;;;;;;;136.90;54.50;;;;;;;-1.92;100.00;97698.34;2073631;28;20254;-78
2021/12/10 02:25:36;;;;;;;148.15;57.35;;;;;;;-1.94;100.00;97689.97;2072285;28;20232;-78
2021/12/10 02:26:42;;;;;;;143.85;55.30;;;;;;;-1.94;100.00;97699.63;2078409;28;20224;-77
2021/12/10 02:27:45;;;;;;;145.68;56.22;;;;;;;-1.97;100.00;97680.03;2080024;28;20306;-78
2021/12/10 02:28:47;;;;;;;137.02;53.50;;;;;;;-1.96;100.00;97697.28;2072087;28;20224;-78
2021/12/10 02:29:52;;;;;;;140.45;55.58;;;;;;;-1.95;100.00;97688.41;2079948;28;20234;-78
2021/12/10 02:30:59;;;;;;;151.07;57.15;;;;;;;-1.96;100.00;97684.22;2079343;28;20238;-77
2021/12/10 02:32:06;;;;;;;137.57;54.25;;;;;;;-1.96;100.00;97684.22;2072531;28;20591;-78
2021/12/10 02:33:08;;;;;;;128.85;54.05;;;;;;;-1.93;100.00;97682.91;2071373;28;20693;-77
2021/12/10 02:34:11;;;;;;;136.38;55.15;;;;;;;-1.97;100.00;97682.63;2071162;28;20227;-77
2021/12/10 02:35:19;;;;;;;154.43;57.67;;;;;;;-1.97;100.00;97674.00;2071847;28;20307;-78
2021/12/10 02:36:29;;;;;;;136.95;51.83;;;;;;;-2.00;100.00;97667.44;2078901;28;20326;-78
2021/12/10 02:37:39;;;;;;;141.80;54.83;;;;;;;-1.98;100.00;97672.44;2080262;28;20630;-78
2021/12/10 02:38:47;;;;;;;144.43;54.50;;;;;;;-2.00;100.00;97670.03;2079219;28;20239;-78
2021/12/10 02:39:52;;;;;;;144.43;55.58;;;;;;;-1.97;100.00;97669.56;2072266;28;20239;-78
2021/12/10 02:40:56;;;;;;;151.40;55.88;;;;;;;-2.00;100.00;97668.25;2079249;28;20237;-78
2021/12/10 02:42:00;;;;;;;140.65;54.75;;;;;;;-2.00;100.00;97670.03;2079511;28;20234;-78
2021/12/10 02:43:07;;;;;;;143.10;55.50;;;;;;;-1.99;100.00;97674.25;2071957;28;20220;-78
2021/12/10 02:44:17;;;;;;;133.70;55.47;;;;;;;-2.00;100.00;97675.28;2078984;28;20227;-78
2021/12/10 02:45:26;;;;;;;145.98;53.40;;;;;;;-2.00;100.00;97672.66;2072220;28;20227;-77
2021/12/10 02:46:30;;;;;;;137.63;54.03;;;;;;;-2.01;100.00;97668.47;2079009;28;20315;-78
2021/12/10 02:47:34;;;;;;;144.32;55.65;;;;;;;-2.04;100.00;97661.94;2080126;28;20223;-78
2021/12/10 02:48:37;;;;;;;142.57;54.95;;;;;;;-2.06;100.00;97661.41;2079677;28;20281;-77
2021/12/10 02:49:41;;;;;;;139.48;54.47;;;;;;;-2.04;100.00;97653.31;2080137;28;20231;-78
2021/12/10 02:50:46;;;;;;;144.10;55.85;;;;;;;-2.10;100.00;97655.06;2080044;28;20628;-78
2021/12/10 02:51:56;;;;;;;136.25;54.42;;;;;;;-2.10;100.00;97659.50;2079526;28;20215;-78
2021/12/10 02:53:03;;;;;;;143.68;53.17;;;;;;;-2.06;100.00;97660.63;2066131;28;20262;-78
2021/12/10 02:54:09;;;;;;;131.82;53.30;;;;;;;-2.08;100.00;97657.47;2066387;28;20312;-78
2021/12/10 02:55:15;;;;;;;145.90;55.50;;;;;;;-2.06;100.00;97660.63;2079194;28;20219;-78
2021/12/10 02:56:19;;;;;;;146.32;55.70;;;;;;;-2.10;100.00;97659.50;2080161;28;20220;-78
2021/12/10 02:57:25;;;;;;;138.02;53.78;;;;;;;-2.09;100.00;97655.88;2079141;28;20307;-78
2021/12/10 02:58:32;;;;;;;135.95;53.50;;;;;;;-2.11;100.00;97668.41;2071573;28;20224;-79
2021/12/10 02:59:44;;;;;;;140.85;54.85;;;;;;;-2.11;100.00;97674.41;2079346;28;20308;-78
2021/12/10 03:00:52;;;;;;;150.88;54.28;;;;;;;-2.15;100.00;97660.28;2079757;28;20226;-78
2021/12/10 03:02:00;;;;;;;141.00;55.55;;;;;;;-2.12;100.00;97666.81;2079063;28;20258;-77
2021/12/10 03:03:03;;;;;;;134.63;54.70;;;;;;;-2.14;100.00;97663.69;2079223;28;20589;-78
2021/12/10 03:04:08;;;;;;;140.93;55.22;;;;;;;-2.15;100.00;97662.88;2079405;28;20218;-78
2021/12/10 03:05:12;;;;;;;130.13;55.20;;;;;;;-2.13;100.00;97654.81;2078785;28;20227;-78
2021/12/10 03:06:20;;;;;;;133.73;54.13;;;;;;;-2.14;100.00;97658.44;2078968;28;20259;-78
2021/12/10 03:07:30;;;;;;;136.90;54.22;;;;;;;-2.15;100.00;97668.13;2079331;28;20297;-78
2021/12/10 03:08:39;;;;;;;149.90;54.80;;;;;;;-2.13;100.00;97671.25;2072192;28;20224;-77
2021/12/10 03:09:44;;;;;;;133.35;53.42;;;;;;;-2.14;100.00;97661.84;2077290;28;20704;-78
2021/12/10 03:10:46;;;;;;;138.10;53.25;;;;;;;-2.13;100.00;97654.81;2072026;28;20224;-79
2021/12/10 03:11:56;;;;;;;149.25;55.83;;;;;;;-2.16;100.00;97658.69;2071186;28;20232;-78
2021/12/10 03:12:58;;;;;;;137.60;54.05;;;;;;;-2.12;100.00;97656.38;2079166;28;20235;-78
2021/12/10 03:14:06;;;;;;;133.68;52.58;;;;;;;-2.15;100.00;97649.81;2079571;28;20246;-78
2021/12/10 03:15:14;;;;;;;134.60;54.25;;;;;;;-2.13;100.00;97649.56;2065951;28;20311;-77
2021/12/10 03:16:18;;;;;;;139.50;54.53;;;;;;;-2.11;100.00;97663.16;2072228;28;20227;-77
2021/12/10 03:17:25;;;;;;;133.98;54.35;;;;;;;-2.14;100.00;97661.06;2076348;28;20569;-78
2021/12/10 03:18:26;;;;;;;142.48;54.70;;;;;;;-2.11;100.00;97673.63;2071699;28;20262;-78
2021/12/10 03:19:32;;;;;;;136.48;56.28;;;;;;;-2.12;100.00;97672.03;2079322;28;20234;-78
2021/12/10 03:20:41;;;;;;;135.93;54.42;;;;;;;-2.10;100.00;97664.75;2079416;28;20338;-78
2021/12/10 03:21:51;;;;;;;136.50;55.10;;;;;;;-2.10;100.00;97677.81;2071846;28;20228;-78
2021/12/10 03:23:01;;;;;;;127.78;54.30;;;;;;;-2.11;100.00;97684.06;2071805;28;20232;-77
2021/12/10 03:24:06;;;;;;;136.27;53.50;;;;;;;-2.10;100.00;97678.59;2079255;28;20219;-78
2021/12/10 03:25:10;;;;;;;137.88;53.85;;;;;;;-2.11;100.00;97684.06;2079592;28;20318;-77
2021/12/10 03:26:16;;;;;;;139.65;55.58;;;;;;;-2.12;100.00;97682.50;2079882;28;20227;-78
2021/12/10 03:27:24;;;;;;;139.45;54.63;;;;;;;-2.14;100.00;97684.56;2079058;28;20727;-78
2021/12/10 03:28:34;;;;;;;140.65;54.42;;;;;;;-2.10;100.00;97680.41;2072233;28;20244;-78
2021/12/10 03:29:43;;;;;;;132.90;54.78;;;;;;;-2.11;100.00;97682.25;2071363;28;20764;-78
2021/12/10 03:30:56;;;;;;;132.20;53.85;;;;;;;-2.12;100.00;97672.03;2072001;28;20579;-78
2021/12/10 03:32:04;;;;;;;133.18;51.60;;;;;;;-2.10;100.00;97670.75;2072040;28;20325;-78
2021/12/10 03:33:09;;;;;;;138.20;53.92;;;;;;;-2.11;100.00;97678.84;2071767;28;20266;-78
2021/12/10 03:34:12;;;;;;;144.70;56.10;;;;;;;-2.09;100.00;97671.53;2078701;28;20297;-77
2021/12/10 03:35:23;;;;;;;139.15;55.15;;;;;;;-2.10;100.00;97669.97;2071759;28;20253;-78
2021/12/10 03:36:28;;;;;;;143.98;53.45;;;;;;;-2.11;100.00;97669.19;2077544;28;20227;-77
2021/12/10 03:37:36;;;;;;;128.00;54.30;;;;;;;-2.12;100.00;97677.28;2079743;28;20219;-77
2021/12/10 03:38:45;;;;;;;139.48;55.00;;;;;;;-2.11;100.00;97674.41;2079296;28;20253;-77
2021/12/10 03:39:51;;;;;;;129.77;52.63;;;;;;;-2.10;100.00;97677.81;2078585;28;20223;-78
2021/12/10 03:40:59;;;;;;;129.40;54.60;;;;;;;-2.12;100.00;97677.28;2070304;28;20246;-78
2021/12/10 03:42:02;;;;;;;135.18;55.35;;;;;;;-2.11;100.00;97678.84;2072188;28;20271;-78
2021/12/10 03:43:11;;;;;;;125.65;54.08;;;;;;;-2.09;100.00;97682.00;2076084;28;20237;-78
2021/12/10 03:44:17;;;;;;;134.73;53.42;;;;;;;-2.06;100.00;97671.06;2070498;28;20236;-78
2021/12/10 03:45:24;;;;;;;138.32;54.72;;;;;;;-2.09;100.00;97676.75;2070646;28;20274;-78
2021/12/10 03:46:26;;;;;;;136.40;58.03;;;;;;;-2.07;100.00;97680.72;2065342;28;20716;-78
2021/12/10 03:47:28;;;;;;;127.43;53.83;;;;;;;-2.11;100.00;97671.00;2063978;28;20623;-78
2021/12/10 03:48:37;;;;;;;131.57;54.28;;;;;;;-2.09;100.00;97682.78;2070835;28;20227;-78
2021/12/10 03:49:46;;;;;;;124.65;54.25;;;;;;;-2.08;100.00;97681.75;2077823;28;20233;-78
2021/12/10 03:50:52;;;;;;;142.75;54.10;;;;;;;-2.07;100.00;97680.72;2078777;28;20211;-78
2021/12/10 03:51:59;;;;;;;136.02;54.90;;;;;;;-2.07;100.00;97685.16;2071156;28;20252;-77
2021/12/10 03:53:02;;;;;;;142.45;54.03;;;;;;;-2.10;100.00;97669.97;2071909;28;20658;-78
2021/12/10 03:54:09;;;;;;;131.43;54.22;;;;;;;-2.05;100.00;97672.63;2078952;28;20228;-78
2021/12/10 03:55:10;;;;;;;127.75;53.03;;;;;;;-2.07;100.00;97679.94;2079491;28;20238;-78
2021/12/10 03:56:18;;;;;;;129.50;54.23;;;;;;;-2.05;100.00;97677.88;2079573;28;20310;-78
2021/12/10 03:57:26;;;;;;;133.57;53.45;;;;;;;-2.03;100.00;97691.47;2079241;28;20324;-78
2021/12/10 03:58:37;;;;;;;123.20;50.47;;;;;;;-2.03;100.00;97700.09;2078711;28;20299;-78
2021/12/10 03:59:41;;;;;;;138.32;53.28;;;;;;;-2.03;100.00;97700.09;2078715;28;20286;-78
2021/12/10 04:00:48;;;;;;;131.57;54.90;;;;;;;-2.02;100.00;97691.22;2079607;28;20290;-78
2021/12/10 04:01:53;;;;;;;124.68;53.03;;;;;;;-2.02;100.00;97696.44;2079668;28;20222;-78
2021/12/10 04:03:01;;;;;;;132.05;54.58;;;;;;;-2.01;100.00;97697.22;2078729;28;20751;-77
2021/12/10 04:04:09;;;;;;;126.00;51.67;;;;;;;-2.01;100.00;97698.00;2078884;28;20227;-78
2021/12/10 04:05:13;;;;;;;136.30;54.80;;;;;;;-2.01;100.00;97694.59;2079350;28;20230;-77
2021/12/10 04:06:20;;;;;;;128.02;52.67;;;;;;;-2.01;100.00;97690.16;2079225;28;20254;-78
2021/12/10 04:07:26;;;;;;;142.68;54.70;;;;;;;-2.03;100.00;97691.47;2079110;28;20227;-78
2021/12/10 04:08:34;;;;;;;143.57;57.33;;;;;;;-2.02;100.00;97693.03;2078700;28;20247;-78
2021/12/10 04:09:40;;;;;;;135.00;54.25;;;;;;;-2.03;100.00;97696.69;2078900;28;20231;-78
2021/12/10 04:10:47;;;;;;;132.95;54.97;;;;;;;-2.02;100.00;97698.25;2070283;28;20293;-77
2021/12/10 04:11:53;;;;;;;143.45;54.65;;;;;;;-2.04;100.00;97692.50;2071324;28;20298;-78
2021/12/10 04:13:00;;;;;;;132.27;52.88;;;;;;;-2.03;100.00;97700.09;2078261;28;20273;-78
2021/12/10 04:14:06;;;;;;;130.82;53.17;;;;;;;-2.02;100.00;97700.88;2079222;28;20592;-78
2021/12/10 04:15:14;;;;;;;134.23;52.28;;;;;;;-2.00;100.00;97698.78;2078190;28;20245;-77
2021/12/10 04:16:18;;;;;;;138.27;52.55;;;;;;;-1.94;100.00;97691.78;2078489;28;20243;-78
2021/12/10 04:17:25;;;;;;;138.82;52.72;;;;;;;-1.98;100.00;97688.91;2079290;28;20223;-77
2021/12/10 04:18:30;;;;;;;127.20;52.45;;;;;;;-1.94;100.00;97697.03;2078869;28;20635;-76
2021/12/10 04:19:46;;;;;;;130.05;55.67;;;;;;;-1.96;100.00;97702.50;2078858;28;20227;-77
2021/12/10 04:20:50;;;;;;;140.23;55.08;;;;;;;-1.96;100.00;97699.88;2072089;28;20220;-77
2021/12/10 04:22:00;;;;;;;126.72;54.80;;;;;;;-1.96;100.00;97704.34;2070539;28;20647;-77
2021/12/10 04:23:04;;;;;;;130.38;55.28;;;;;;;-1.94;100.00;97699.63;2072125;28;20755;-77
2021/12/10 04:24:07;;;;;;;136.85;54.72;;;;;;;-1.98;100.00;97696.75;2078972;28;20270;-77
2021/12/10 04:25:16;;;;;;;133.02;53.50;;;;;;;-1.98;100.00;97698.56;2078421;28;20236;-77
2021/12/10 04:26:24;;;;;;;127.70;53.30;;;;;;;-1.96;100.00;97696.50;2071651;28;20645;-77
2021/12/10 04:27:30;;;;;;;134.48;54.25;;;;;;;-1.97;100.00;97705.38;2070857;28;20642;-77
2021/12/10 04:28:38;;;;;;;128.70;53.28;;;;;;;-1.97;100.00;97700.94;2062921;28;20301;-77
2021/12/10 04:29:46;;;;;;;123.55;53.75;;;;;;;-1.98;100.00;97694.13;2074084;28;20243;-77
2021/12/10 04:30:48;;;;;;;128.60;53.35;;;;;;;-1.98;100.00;97694.13;2071294;28;20216;-77
2021/12/10 04:31:55;;;;;;;131.05;52.83;;;;;;;-1.96;100.00;97692.06;2078629;28;20231;-77
2021/12/10 04:33:01;;;;;;;122.63;52.67;;;;;;;-2.00;100.00;97690.94;2079056;28;20317;-77
2021/12/10 04:34:06;;;;;;;127.38;52.60;;;;;;;-2.00;100.00;97696.19;2078759;28;20226;-77
2021/12/10 04:35:15;;;;;;;130.93;55.25;;;;;;;-1.97;100.00;97700.94;2078534;28;20227;-76
2021/12/10 04:36:22;;;;;;;139.57;55.03;;;;;;;-2.02;100.00;97690.41;2071543;28;20230;-77
2021/12/10 04:37:26;;;;;;;136.65;54.30;;;;;;;-1.98;100.00;97699.34;2070857;28;20259;-77
2021/12/10 04:38:32;;;;;;;122.53;52.20;;;;;;;-1.99;100.00;97703.00;2070327;28;20323;-77
2021/12/10 04:39:40;;;;;;;129.95;53.92;;;;;;;-2.01;100.00;97705.84;2078669;28;20325;-77
2021/12/10 04:40:56;;;;;;;126.47;53.55;;;;;;;-1.93;100.00;97702.00;2078288;28;20241;-77
2021/12/10 04:42:01;;;;;;;126.22;52.03;;;;;;;-1.96;100.00;97697.28;2078150;28;20226;-77
2021/12/10 04:43:07;;;;;;;127.78;53.22;;;;;;;-1.95;100.00;97693.63;2078483;28;20225;-77
2021/12/10 04:44:11;;;;;;;128.73;52.22;;;;;;;-1.96;100.00;97691.25;2070850;28;20232;-78
2021/12/10 04:45:16;;;;;;;125.45;54.08;;;;;;;-1.94;100.00;97704.88;2071006;28;20228;-77
2021/12/10 04:46:17;;;;;;;124.57;53.70;;;;;;;-1.94;100.00;97699.63;2078481;28;20623;-77
2021/12/10 04:47:26;;;;;;;123.50;52.95;;;;;;;-1.94;100.00;97705.66;2079326;28;20239;-77
2021/12/10 04:48:43;;;;;;;135.30;52.88;;;;;;;-1.95;100.00;97711.13;2077908;28;20227;-77
2021/12/10 04:49:49;;;;;;;128.95;52.65;;;;;;;-1.95;100.00;97718.97;2070880;28;20626;-77
2021/12/10 04:50:57;;;;;;;134.20;53.80;;;;;;;-1.97;100.00;97716.59;2076097;28;20677;-77
2021/12/10 04:52:01;;;;;;;121.57;52.65;;;;;;;-1.93;100.00;97725.53;2078636;28;20360;-77
2021/12/10 04:53:05;;;;;;;123.60;53.67;;;;;;;-1.96;100.00;97726.03;2078880;28;20273;-77
2021/12/10 04:54:14;;;;;;;125.63;53.17;;;;;;;-1.99;100.00;97718.69;2070597;28;20226;-77
2021/12/10 04:55:22;;;;;;;132.32;52.45;;;;;;;-1.99;100.00;97713.47;2071039;28;20773;-78
2021/12/10 04:56:30;;;;;;;125.63;52.80;;;;;;;-2.01;100.00;97716.28;2064221;28;20314;-77
2021/12/10 04:57:37;;;;;;;128.30;52.72;;;;;;;-2.01;100.00;97713.69;2070202;28;20235;-78
2021/12/10 04:58:48;;;;;;;125.45;53.47;;;;;;;-2.00;100.00;97714.47;2076526;28;20252;-78
2021/12/10 04:59:50;;;;;;;124.22;52.38;;;;;;;-2.03;100.00;97714.97;2071356;28;20299;-78
2021/12/10 05:00:57;;;;;;;120.57;51.83;;;;;;;-2.02;100.00;97717.34;2078198;28;20245;-76
2021/12/10 05:02:03;;;;;;;132.07;54.33;;;;;;;-2.01;100.00;97715.50;2078253;28;20219;-77
2021/12/10 05:03:10;;;;;;;129.82;53.45;;;;;;;-1.98;100.00;97722.09;2078182;28;20230;-77
2021/12/10 05:04:17;;;;;;;133.15;54.72;;;;;;;-1.99;100.00;97729.13;2078044;28;20310;-77
2021/12/10 05:05:27;;;;;;;128.70;54.75;;;;;;;-1.97;100.00;97732.28;2078441;28;20228;-78
2021/12/10 05:06:30;;;;;;;133.95;54.63;;;;;;;-2.00;100.00;97722.31;2070964;28;20284;-77
2021/12/10 05:07:36;;;;;;;130.27;53.22;;;;;;;-1.97;100.00;97716.59;2070882;28;20616;-77
2021/12/10 05:08:39;;;;;;;135.60;53.75;;;;;;;-1.95;100.00;97719.75;2073363;28;20702;-77
2021/12/10 05:09:46;;;;;;;131.35;54.35;;;;;;;-1.95;100.00;97716.34;2061830;28;20232;-77